Otter Rock, OR (97369)

10:52 PM PDT on July 24, 2016 (GMT -0700)
Sea Crest | | Change Station

Elev 112 ft 44.76 °N, 124.06 °W | Updated 19 seconds ago

Overcast
Overcast
61.2 °F
Feels Like 61.2 °F
N
5.4
Wind Variable Wind from WSW
Gusts 7.2 mph

Today
High -- | Low -- °F
--% Chance of Precip.
Yesterday
High -- | Low -- °F
Precip. -- in
Pressure 30.10 in
Visibility 10.0 miles
Clouds Overcast 1300 ft
Dew Point 61 °F
Humidity 98%
Rainfall 0.00 in
Snow Depth Not available.
5:54 AM 8:50 PM
Waning Gibbous, 69% visible
METAR KONP 250535Z AUTO 35006KT 10SM OVC013 14/13 A3010 RMK AO2
Pressure 30.10 in
Visibility 10.0 miles
Clouds Overcast 1300 ft
Dew Point 61 °F
Humidity 98%
Rainfall 0.00 in
Snow Depth Not available.
5:54 AM 8:50 PM
Waning Gibbous, 69% visible
METAR KONP 250535Z AUTO 35006KT 10SM OVC013 14/13 A3010 RMK AO2

10-Day Weather Forecast

Almanac

Astronomy

Jul. 24, 2016 Rise Set
Actual Time
Civil Twilight
Nautical Twilight
Astronomical Twilight
Moon
Length of Visible Light
Length of Day
Tomorrow will be .
, % of the Moon is Illuminated

Today's Extremes

State Highs State Lows

Community

WunderPhotos

Upload Photos

1,927,274 photos uploaded!

WunderBlog® & News

Nearby

Air Quality

  Air Quality AQ Index Pollutant
Not available.

Snow Depth

Station Depth Elevation

Earthquake Activity

City Distance Mag. Time & Date
Minimum magnitude displayed is 2.5.

Coastal Water Temperatures

Place Temperature

Stations

Nearby Weather Stations

Station Location Temp. Windchill Dew Point Humidity Wind Precip. Elev Updated Type
                   

Watches & Warnings

There are currently no watches in effect.